sensor_id;sensor_type;location;lat;lon;timestamp;P1;durP1;ratioP1;P2;durP2;ratioP2
75854;SDS011;64502;59.976;30.316;2023-11-19T00:02:13;2.70;;;0.75;;
75854;SDS011;64502;59.976;30.316;2023-11-19T00:04:38;4.50;;;1.45;;
75854;SDS011;64502;59.976;30.316;2023-11-19T00:07:04;2.05;;;0.65;;
75854;SDS011;64502;59.976;30.316;2023-11-19T00:09:32;2.50;;;1.02;;
75854;SDS011;64502;59.976;30.316;2023-11-19T00:12:03;2.30;;;0.73;;
75854;SDS011;64502;59.976;30.316;2023-11-19T00:14:29;2.10;;;0.82;;
75854;SDS011;64502;59.976;30.316;2023-11-19T00:16:55;5.70;;;1.13;;
75854;SDS011;64502;59.976;30.316;2023-11-19T00:19:21;2.63;;;0.52;;
75854;SDS011;64502;59.976;30.316;2023-11-19T00:21:46;2.35;;;0.82;;
75854;SDS011;64502;59.976;30.316;2023-11-19T00:24:12;2.55;;;0.80;;
75854;SDS011;64502;59.976;30.316;2023-11-19T00:26:38;3.08;;;0.93;;
75854;SDS011;64502;59.976;30.316;2023-11-19T00:29:03;2.25;;;0.75;;
75854;SDS011;64502;59.976;30.316;2023-11-19T00:31:29;2.53;;;0.88;;
75854;SDS011;64502;59.976;30.316;2023-11-19T00:33:55;3.42;;;1.08;;
75854;SDS011;64502;59.976;30.316;2023-11-19T00:36:20;2.20;;;0.60;;
75854;SDS011;64502;59.976;30.316;2023-11-19T00:38:46;2.97;;;1.20;;
75854;SDS011;64502;59.976;30.316;2023-11-19T00:41:11;4.20;;;1.02;;
75854;SDS011;64502;59.976;30.316;2023-11-19T00:43:37;4.03;;;0.80;;
75854;SDS011;64502;59.976;30.316;2023-11-19T00:46:03;2.60;;;0.90;;
75854;SDS011;64502;59.976;30.316;2023-11-19T00:48:32;1.92;;;0.68;;
75854;SDS011;64502;59.976;30.316;2023-11-19T00:50:57;2.75;;;0.80;;
75854;SDS011;64502;59.976;30.316;2023-11-19T00:53:22;2.33;;;0.70;;
75854;SDS011;64502;59.976;30.316;2023-11-19T00:55:48;2.05;;;0.63;;
75854;SDS011;64502;59.976;30.316;2023-11-19T00:58:13;3.67;;;1.10;;
75854;SDS011;64502;59.976;30.316;2023-11-19T01:00:39;3.22;;;0.70;;
75854;SDS011;64502;59.976;30.316;2023-11-19T01:03:05;3.85;;;0.80;;
75854;SDS011;64502;59.976;30.316;2023-11-19T01:05:32;1.75;;;0.60;;
75854;SDS011;64502;59.976;30.316;2023-11-19T01:07:58;2.03;;;0.60;;
75854;SDS011;64502;59.976;30.316;2023-11-19T01:10:23;1.10;;;0.25;;
75854;SDS011;64502;59.976;30.316;2023-11-19T01:12:50;1.98;;;0.90;;
75854;SDS011;64502;59.976;30.316;2023-11-19T01:15:17;1.67;;;0.50;;
75854;SDS011;64502;59.976;30.316;2023-11-19T01:17:44;1.88;;;0.40;;
75854;SDS011;64502;59.976;30.316;2023-11-19T01:20:10;3.50;;;0.57;;
75854;SDS011;64502;59.976;30.316;2023-11-19T01:22:38;3.70;;;1.33;;
75854;SDS011;64502;59.976;30.316;2023-11-19T01:25:04;2.22;;;0.40;;
75854;SDS011;64502;59.976;30.316;2023-11-19T01:27:30;2.20;;;0.30;;
75854;SDS011;64502;59.976;30.316;2023-11-19T01:29:56;1.98;;;0.25;;
75854;SDS011;64502;59.976;30.316;2023-11-19T01:32:21;2.67;;;0.98;;
75854;SDS011;64502;59.976;30.316;2023-11-19T01:34:49;2.20;;;0.82;;
75854;SDS011;64502;59.976;30.316;2023-11-19T01:37:15;2.85;;;0.65;;
75854;SDS011;64502;59.976;30.316;2023-11-19T01:39:43;1.95;;;0.57;;
75854;SDS011;64502;59.976;30.316;2023-11-19T01:42:09;2.47;;;0.75;;
75854;SDS011;64502;59.976;30.316;2023-11-19T01:44:34;2.45;;;0.80;;
75854;SDS011;64502;59.976;30.316;2023-11-19T01:47:00;1.98;;;0.68;;
75854;SDS011;64502;59.976;30.316;2023-11-19T01:49:27;2.20;;;0.80;;
75854;SDS011;64502;59.976;30.316;2023-11-19T01:51:54;2.17;;;0.55;;
75854;SDS011;64502;59.976;30.316;2023-11-19T01:54:19;3.63;;;0.75;;
75854;SDS011;64502;59.976;30.316;2023-11-19T01:56:45;4.57;;;0.85;;
75854;SDS011;64502;59.976;30.316;2023-11-19T01:59:11;2.00;;;1.02;;
75854;SDS011;64502;59.976;30.316;2023-11-19T02:01:38;2.38;;;0.90;;
75854;SDS011;64502;59.976;30.316;2023-11-19T02:04:05;1.88;;;0.60;;
75854;SDS011;64502;59.976;30.316;2023-11-19T02:06:33;2.42;;;0.90;;
75854;SDS011;64502;59.976;30.316;2023-11-19T02:08:59;2.42;;;0.75;;
75854;SDS011;64502;59.976;30.316;2023-11-19T02:11:25;1.60;;;0.50;;
75854;SDS011;64502;59.976;30.316;2023-11-19T02:13:55;2.10;;;0.68;;
75854;SDS011;64502;59.976;30.316;2023-11-19T02:16:21;3.80;;;1.58;;
75854;SDS011;64502;59.976;30.316;2023-11-19T02:18:47;2.40;;;1.23;;
75854;SDS011;64502;59.976;30.316;2023-11-19T02:21:13;3.10;;;1.45;;
75854;SDS011;64502;59.976;30.316;2023-11-19T02:23:40;2.13;;;0.50;;
75854;SDS011;64502;59.976;30.316;2023-11-19T02:26:13;3.78;;;0.93;;
75854;SDS011;64502;59.976;30.316;2023-11-19T02:28:43;4.03;;;0.43;;
75854;SDS011;64502;59.976;30.316;2023-11-19T02:31:09;1.48;;;0.50;;
75854;SDS011;64502;59.976;30.316;2023-11-19T02:33:38;1.70;;;0.30;;
75854;SDS011;64502;59.976;30.316;2023-11-19T02:36:04;2.38;;;0.60;;
75854;SDS011;64502;59.976;30.316;2023-11-19T02:38:32;1.75;;;0.57;;
75854;SDS011;64502;59.976;30.316;2023-11-19T02:40:59;1.20;;;0.30;;
75854;SDS011;64502;59.976;30.316;2023-11-19T02:43:30;2.33;;;0.55;;
75854;SDS011;64502;59.976;30.316;2023-11-19T02:45:58;1.52;;;0.43;;
75854;SDS011;64502;59.976;30.316;2023-11-19T02:48:27;1.38;;;0.30;;
75854;SDS011;64502;59.976;30.316;2023-11-19T02:50:52;3.50;;;0.45;;
75854;SDS011;64502;59.976;30.316;2023-11-19T02:53:18;3.67;;;0.40;;
75854;SDS011;64502;59.976;30.316;2023-11-19T02:55:47;1.55;;;0.30;;
75854;SDS011;64502;59.976;30.316;2023-11-19T02:58:13;3.38;;;0.47;;
75854;SDS011;64502;59.976;30.316;2023-11-19T03:00:45;2.00;;;0.63;;
75854;SDS011;64502;59.976;30.316;2023-11-19T03:03:19;2.17;;;0.52;;
75854;SDS011;64502;59.976;30.316;2023-11-19T03:05:51;1.25;;;0.30;;
75854;SDS011;64502;59.976;30.316;2023-11-19T03:08:16;1.63;;;0.40;;
75854;SDS011;64502;59.976;30.316;2023-11-19T03:10:42;1.98;;;0.40;;
75854;SDS011;64502;59.976;30.316;2023-11-19T03:13:12;3.65;;;0.60;;
75854;SDS011;64502;59.976;30.316;2023-11-19T03:15:39;2.95;;;0.38;;
75854;SDS011;64502;59.976;30.316;2023-11-19T03:18:05;1.80;;;0.40;;
75854;SDS011;64502;59.976;30.316;2023-11-19T03:20:30;2.13;;;0.60;;
75854;SDS011;64502;59.976;30.316;2023-11-19T03:22:57;2.65;;;0.68;;
75854;SDS011;64502;59.976;30.316;2023-11-19T03:25:28;2.75;;;0.57;;
75854;SDS011;64502;59.976;30.316;2023-11-19T03:28:03;4.18;;;0.90;;
75854;SDS011;64502;59.976;30.316;2023-11-19T03:30:29;2.85;;;0.45;;
75854;SDS011;64502;59.976;30.316;2023-11-19T03:32:55;1.65;;;0.50;;
75854;SDS011;64502;59.976;30.316;2023-11-19T03:35:21;1.52;;;0.50;;
75854;SDS011;64502;59.976;30.316;2023-11-19T03:37:47;1.73;;;0.40;;
75854;SDS011;64502;59.976;30.316;2023-11-19T03:40:13;2.28;;;0.70;;
75854;SDS011;64502;59.976;30.316;2023-11-19T03:42:40;1.60;;;0.45;;
75854;SDS011;64502;59.976;30.316;2023-11-19T03:45:08;2.55;;;0.63;;
75854;SDS011;64502;59.976;30.316;2023-11-19T03:47:34;3.13;;;0.75;;
75854;SDS011;64502;59.976;30.316;2023-11-19T03:50:00;2.05;;;0.60;;
75854;SDS011;64502;59.976;30.316;2023-11-19T03:52:26;4.32;;;0.30;;
75854;SDS011;64502;59.976;30.316;2023-11-19T03:54:55;1.98;;;0.40;;
75854;SDS011;64502;59.976;30.316;2023-11-19T03:57:21;1.13;;;0.20;;
75854;SDS011;64502;59.976;30.316;2023-11-19T03:59:47;1.63;;;0.40;;
75854;SDS011;64502;59.976;30.316;2023-11-19T04:02:13;1.95;;;0.43;;
75854;SDS011;64502;59.976;30.316;2023-11-19T04:04:38;1.50;;;0.40;;
75854;SDS011;64502;59.976;30.316;2023-11-19T04:07:04;7.00;;;0.90;;
75854;SDS011;64502;59.976;30.316;2023-11-19T04:09:30;4.22;;;0.40;;
75854;SDS011;64502;59.976;30.316;2023-11-19T04:11:58;1.90;;;0.28;;
75854;SDS011;64502;59.976;30.316;2023-11-19T04:14:23;2.60;;;0.75;;
75854;SDS011;64502;59.976;30.316;2023-11-19T04:16:49;2.63;;;0.70;;
75854;SDS011;64502;59.976;30.316;2023-11-19T04:19:16;2.13;;;0.40;;
75854;SDS011;64502;59.976;30.316;2023-11-19T04:21:41;3.00;;;0.57;;
75854;SDS011;64502;59.976;30.316;2023-11-19T04:24:07;3.83;;;0.70;;
75854;SDS011;64502;59.976;30.316;2023-11-19T04:26:34;2.10;;;0.93;;
75854;SDS011;64502;59.976;30.316;2023-11-19T04:28:59;1.48;;;0.43;;
75854;SDS011;64502;59.976;30.316;2023-11-19T04:31:34;1.88;;;0.30;;
75854;SDS011;64502;59.976;30.316;2023-11-19T04:33:59;2.85;;;0.90;;
75854;SDS011;64502;59.976;30.316;2023-11-19T04:36:25;7.63;;;0.70;;
75854;SDS011;64502;59.976;30.316;2023-11-19T04:38:51;2.10;;;0.60;;
75854;SDS011;64502;59.976;30.316;2023-11-19T04:41:16;5.15;;;0.63;;
75854;SDS011;64502;59.976;30.316;2023-11-19T04:43:42;2.30;;;0.65;;
75854;SDS011;64502;59.976;30.316;2023-11-19T04:46:09;2.03;;;0.57;;
75854;SDS011;64502;59.976;30.316;2023-11-19T04:48:35;5.38;;;0.88;;
75854;SDS011;64502;59.976;30.316;2023-11-19T04:51:00;2.55;;;0.80;;
75854;SDS011;64502;59.976;30.316;2023-11-19T04:53:26;3.33;;;0.50;;
75854;SDS011;64502;59.976;30.316;2023-11-19T04:55:51;2.38;;;0.80;;
75854;SDS011;64502;59.976;30.316;2023-11-19T04:58:17;3.00;;;0.82;;
75854;SDS011;64502;59.976;30.316;2023-11-19T05:00:42;4.72;;;0.85;;
75854;SDS011;64502;59.976;30.316;2023-11-19T05:03:08;1.42;;;0.22;;
75854;SDS011;64502;59.976;30.316;2023-11-19T05:05:33;5.47;;;0.85;;
75854;SDS011;64502;59.976;30.316;2023-11-19T05:07:59;1.60;;;0.52;;
75854;SDS011;64502;59.976;30.316;2023-11-19T05:10:24;4.07;;;0.60;;
75854;SDS011;64502;59.976;30.316;2023-11-19T05:12:50;2.95;;;0.85;;
75854;SDS011;64502;59.976;30.316;2023-11-19T05:15:16;1.80;;;0.40;;
75854;SDS011;64502;59.976;30.316;2023-11-19T05:17:42;4.40;;;1.00;;
75854;SDS011;64502;59.976;30.316;2023-11-19T05:20:08;2.92;;;0.88;;
75854;SDS011;64502;59.976;30.316;2023-11-19T05:22:39;2.65;;;0.73;;
75854;SDS011;64502;59.976;30.316;2023-11-19T05:25:08;2.05;;;0.68;;
75854;SDS011;64502;59.976;30.316;2023-11-19T05:27:34;3.10;;;1.00;;
75854;SDS011;64502;59.976;30.316;2023-11-19T05:30:01;3.72;;;1.00;;
75854;SDS011;64502;59.976;30.316;2023-11-19T05:32:28;3.20;;;0.65;;
75854;SDS011;64502;59.976;30.316;2023-11-19T05:34:53;4.90;;;1.02;;
75854;SDS011;64502;59.976;30.316;2023-11-19T05:37:18;6.35;;;0.77;;
75854;SDS011;64502;59.976;30.316;2023-11-19T05:39:44;2.10;;;0.60;;
75854;SDS011;64502;59.976;30.316;2023-11-19T05:42:10;2.85;;;0.80;;
75854;SDS011;64502;59.976;30.316;2023-11-19T05:44:35;2.80;;;0.55;;
75854;SDS011;64502;59.976;30.316;2023-11-19T05:47:01;4.05;;;1.23;;
75854;SDS011;64502;59.976;30.316;2023-11-19T05:49:27;2.30;;;0.80;;
75854;SDS011;64502;59.976;30.316;2023-11-19T05:51:53;3.17;;;1.35;;
75854;SDS011;64502;59.976;30.316;2023-11-19T05:54:20;2.42;;;0.88;;
75854;SDS011;64502;59.976;30.316;2023-11-19T05:56:49;4.68;;;0.85;;
75854;SDS011;64502;59.976;30.316;2023-11-19T05:59:15;4.53;;;1.02;;
75854;SDS011;64502;59.976;30.316;2023-11-19T06:01:43;3.85;;;0.52;;
75854;SDS011;64502;59.976;30.316;2023-11-19T06:04:09;3.10;;;0.70;;
75854;SDS011;64502;59.976;30.316;2023-11-19T06:06:35;4.80;;;1.00;;
75854;SDS011;64502;59.976;30.316;2023-11-19T06:09:01;5.50;;;0.60;;
75854;SDS011;64502;59.976;30.316;2023-11-19T06:11:27;13.02;;;1.23;;
75854;SDS011;64502;59.976;30.316;2023-11-19T06:13:53;5.47;;;1.17;;
75854;SDS011;64502;59.976;30.316;2023-11-19T06:16:19;1.73;;;0.43;;
75854;SDS011;64502;59.976;30.316;2023-11-19T06:18:44;2.45;;;0.52;;
75854;SDS011;64502;59.976;30.316;2023-11-19T06:21:10;3.53;;;0.75;;
75854;SDS011;64502;59.976;30.316;2023-11-19T06:23:36;1.42;;;0.30;;
75854;SDS011;64502;59.976;30.316;2023-11-19T06:26:02;2.53;;;0.63;;
75854;SDS011;64502;59.976;30.316;2023-11-19T06:28:28;4.50;;;0.80;;
75854;SDS011;64502;59.976;30.316;2023-11-19T06:30:55;1.77;;;0.90;;
75854;SDS011;64502;59.976;30.316;2023-11-19T06:33:22;3.15;;;0.77;;
75854;SDS011;64502;59.976;30.316;2023-11-19T06:35:47;5.35;;;0.88;;
75854;SDS011;64502;59.976;30.316;2023-11-19T06:38:14;6.85;;;1.40;;
75854;SDS011;64502;59.976;30.316;2023-11-19T06:40:40;6.05;;;0.90;;
75854;SDS011;64502;59.976;30.316;2023-11-19T06:43:06;7.38;;;1.08;;
75854;SDS011;64502;59.976;30.316;2023-11-19T06:45:33;5.38;;;1.52;;
75854;SDS011;64502;59.976;30.316;2023-11-19T06:48:02;6.15;;;2.35;;
75854;SDS011;64502;59.976;30.316;2023-11-19T06:50:31;5.97;;;1.85;;
75854;SDS011;64502;59.976;30.316;2023-11-19T06:52:57;5.45;;;1.75;;
75854;SDS011;64502;59.976;30.316;2023-11-19T06:55:23;9.02;;;2.30;;
75854;SDS011;64502;59.976;30.316;2023-11-19T06:57:48;9.25;;;2.45;;
75854;SDS011;64502;59.976;30.316;2023-11-19T07:00:13;11.45;;;2.63;;
75854;SDS011;64502;59.976;30.316;2023-11-19T07:02:39;5.53;;;1.40;;
75854;SDS011;64502;59.976;30.316;2023-11-19T07:05:05;5.55;;;2.10;;
75854;SDS011;64502;59.976;30.316;2023-11-19T07:07:31;8.50;;;2.10;;
75854;SDS011;64502;59.976;30.316;2023-11-19T07:09:57;11.88;;;1.92;;
75854;SDS011;64502;59.976;30.316;2023-11-19T07:12:23;10.95;;;2.30;;
75854;SDS011;64502;59.976;30.316;2023-11-19T07:14:52;12.57;;;2.60;;
75854;SDS011;64502;59.976;30.316;2023-11-19T07:17:18;7.63;;;1.40;;
75854;SDS011;64502;59.976;30.316;2023-11-19T07:19:45;7.55;;;2.05;;
75854;SDS011;64502;59.976;30.316;2023-11-19T07:22:11;9.23;;;3.03;;
75854;SDS011;64502;59.976;30.316;2023-11-19T07:24:38;9.57;;;2.30;;
75854;SDS011;64502;59.976;30.316;2023-11-19T07:27:05;6.80;;;1.33;;
75854;SDS011;64502;59.976;30.316;2023-11-19T07:29:31;5.20;;;1.27;;
75854;SDS011;64502;59.976;30.316;2023-11-19T07:31:57;7.60;;;0.88;;
75854;SDS011;64502;59.976;30.316;2023-11-19T07:34:22;9.32;;;1.98;;
75854;SDS011;64502;59.976;30.316;2023-11-19T07:36:49;8.00;;;1.20;;
75854;SDS011;64502;59.976;30.316;2023-11-19T07:39:15;8.00;;;1.38;;
75854;SDS011;64502;59.976;30.316;2023-11-19T07:41:40;3.25;;;2.03;;
75854;SDS011;64502;59.976;30.316;2023-11-19T07:44:06;7.55;;;1.60;;
75854;SDS011;64502;59.976;30.316;2023-11-19T07:46:31;3.22;;;1.67;;
75854;SDS011;64502;59.976;30.316;2023-11-19T07:48:57;3.33;;;0.57;;
75854;SDS011;64502;59.976;30.316;2023-11-19T07:51:22;4.15;;;1.40;;
75854;SDS011;64502;59.976;30.316;2023-11-19T07:53:48;4.57;;;1.17;;
75854;SDS011;64502;59.976;30.316;2023-11-19T07:56:14;4.00;;;1.30;;
75854;SDS011;64502;59.976;30.316;2023-11-19T07:58:40;3.42;;;1.08;;
75854;SDS011;64502;59.976;30.316;2023-11-19T08:01:06;7.95;;;1.23;;
75854;SDS011;64502;59.976;30.316;2023-11-19T08:03:31;12.20;;;1.30;;
75854;SDS011;64502;59.976;30.316;2023-11-19T08:05:59;2.83;;;0.88;;
75854;SDS011;64502;59.976;30.316;2023-11-19T08:08:25;8.63;;;2.30;;
75854;SDS011;64502;59.976;30.316;2023-11-19T08:10:50;5.63;;;2.15;;
75854;SDS011;64502;59.976;30.316;2023-11-19T08:13:21;8.40;;;1.90;;
75854;SDS011;64502;59.976;30.316;2023-11-19T08:15:47;8.05;;;2.40;;
75854;SDS011;64502;59.976;30.316;2023-11-19T08:18:12;11.23;;;3.10;;
75854;SDS011;64502;59.976;30.316;2023-11-19T08:20:38;12.40;;;3.40;;
75854;SDS011;64502;59.976;30.316;2023-11-19T08:23:04;5.75;;;2.17;;
75854;SDS011;64502;59.976;30.316;2023-11-19T08:25:30;8.30;;;1.75;;
75854;SDS011;64502;59.976;30.316;2023-11-19T08:27:55;10.60;;;2.47;;
75854;SDS011;64502;59.976;30.316;2023-11-19T08:30:21;6.80;;;1.85;;
75854;SDS011;64502;59.976;30.316;2023-11-19T08:32:46;6.57;;;1.88;;
75854;SDS011;64502;59.976;30.316;2023-11-19T08:35:12;7.68;;;2.20;;
75854;SDS011;64502;59.976;30.316;2023-11-19T08:37:37;12.82;;;2.70;;
75854;SDS011;64502;59.976;30.316;2023-11-19T08:40:03;10.32;;;2.38;;
75854;SDS011;64502;59.976;30.316;2023-11-19T08:42:30;10.60;;;2.60;;
75854;SDS011;64502;59.976;30.316;2023-11-19T08:44:55;12.13;;;2.90;;
75854;SDS011;64502;59.976;30.316;2023-11-19T08:47:21;9.07;;;1.90;;
75854;SDS011;64502;59.976;30.316;2023-11-19T08:49:48;7.72;;;2.22;;
75854;SDS011;64502;59.976;30.316;2023-11-19T08:52:16;18.77;;;2.63;;
75854;SDS011;64502;59.976;30.316;2023-11-19T08:54:42;15.38;;;3.72;;
75854;SDS011;64502;59.976;30.316;2023-11-19T08:57:08;13.10;;;2.40;;
75854;SDS011;64502;59.976;30.316;2023-11-19T08:59:34;11.05;;;2.20;;
75854;SDS011;64502;59.976;30.316;2023-11-19T09:02:00;8.98;;;2.58;;
75854;SDS011;64502;59.976;30.316;2023-11-19T09:04:27;10.30;;;2.42;;
75854;SDS011;64502;59.976;30.316;2023-11-19T09:06:52;9.88;;;2.53;;
75854;SDS011;64502;59.976;30.316;2023-11-19T09:09:18;18.63;;;2.28;;
75854;SDS011;64502;59.976;30.316;2023-11-19T09:11:43;13.88;;;2.55;;
75854;SDS011;64502;59.976;30.316;2023-11-19T09:14:09;11.20;;;2.38;;
75854;SDS011;64502;59.976;30.316;2023-11-19T09:16:34;7.93;;;2.63;;
75854;SDS011;64502;59.976;30.316;2023-11-19T09:19:00;17.50;;;3.28;;
75854;SDS011;64502;59.976;30.316;2023-11-19T09:21:27;8.23;;;2.30;;
75854;SDS011;64502;59.976;30.316;2023-11-19T09:23:52;11.93;;;2.50;;
75854;SDS011;64502;59.976;30.316;2023-11-19T09:26:19;17.55;;;3.70;;
75854;SDS011;64502;59.976;30.316;2023-11-19T09:28:44;6.57;;;2.60;;
75854;SDS011;64502;59.976;30.316;2023-11-19T09:31:16;8.80;;;2.47;;
75854;SDS011;64502;59.976;30.316;2023-11-19T09:33:42;7.75;;;2.42;;
75854;SDS011;64502;59.976;30.316;2023-11-19T09:36:08;12.05;;;2.75;;
75854;SDS011;64502;59.976;30.316;2023-11-19T09:38:35;11.32;;;2.58;;
75854;SDS011;64502;59.976;30.316;2023-11-19T09:41:04;11.65;;;2.90;;
75854;SDS011;64502;59.976;30.316;2023-11-19T09:43:33;3.88;;;1.67;;
75854;SDS011;64502;59.976;30.316;2023-11-19T09:46:03;4.38;;;1.63;;
75854;SDS011;64502;59.976;30.316;2023-11-19T09:48:32;8.77;;;1.75;;
75854;SDS011;64502;59.976;30.316;2023-11-19T09:51:00;7.03;;;2.05;;
75854;SDS011;64502;59.976;30.316;2023-11-19T09:53:27;6.22;;;2.08;;
75854;SDS011;64502;59.976;30.316;2023-11-19T09:55:53;6.45;;;2.00;;
75854;SDS011;64502;59.976;30.316;2023-11-19T09:58:18;4.40;;;1.92;;
75854;SDS011;64502;59.976;30.316;2023-11-19T10:00:44;3.45;;;1.13;;
75854;SDS011;64502;59.976;30.316;2023-11-19T10:03:10;4.25;;;1.33;;
75854;SDS011;64502;59.976;30.316;2023-11-19T10:05:37;4.75;;;1.05;;
75854;SDS011;64502;59.976;30.316;2023-11-19T10:08:06;12.07;;;2.00;;
75854;SDS011;64502;59.976;30.316;2023-11-19T10:10:33;8.32;;;2.45;;
75854;SDS011;64502;59.976;30.316;2023-11-19T10:12:59;8.75;;;2.17;;
75854;SDS011;64502;59.976;30.316;2023-11-19T10:15:25;10.80;;;1.60;;
75854;SDS011;64502;59.976;30.316;2023-11-19T10:18:00;16.15;;;2.03;;
75854;SDS011;64502;59.976;30.316;2023-11-19T10:20:26;8.05;;;2.10;;
75854;SDS011;64502;59.976;30.316;2023-11-19T10:22:55;5.68;;;1.88;;
75854;SDS011;64502;59.976;30.316;2023-11-19T10:25:24;6.70;;;1.98;;
75854;SDS011;64502;59.976;30.316;2023-11-19T10:27:54;7.70;;;2.15;;
75854;SDS011;64502;59.976;30.316;2023-11-19T10:30:21;9.70;;;2.28;;
75854;SDS011;64502;59.976;30.316;2023-11-19T10:35:32;9.40;;;2.33;;
75854;SDS011;64502;59.976;30.316;2023-11-19T10:38:32;10.02;;;2.53;;
75854;SDS011;64502;59.976;30.316;2023-11-19T10:40:51;9.80;;;2.38;;
75854;SDS011;64502;59.976;30.316;2023-11-19T10:43:21;7.03;;;1.90;;
75854;SDS011;64502;59.976;30.316;2023-11-19T10:45:48;9.75;;;2.13;;
75854;SDS011;64502;59.976;30.316;2023-11-19T10:48:14;6.70;;;2.42;;
75854;SDS011;64502;59.976;30.316;2023-11-19T10:50:41;11.38;;;2.67;;
75854;SDS011;64502;59.976;30.316;2023-11-19T10:53:08;9.25;;;2.60;;
75854;SDS011;64502;59.976;30.316;2023-11-19T10:55:36;8.23;;;2.55;;
75854;SDS011;64502;59.976;30.316;2023-11-19T10:58:06;6.25;;;2.13;;
75854;SDS011;64502;59.976;30.316;2023-11-19T11:00:34;11.07;;;2.53;;
75854;SDS011;64502;59.976;30.316;2023-11-19T11:03:18;11.00;;;2.53;;
75854;SDS011;64502;59.976;30.316;2023-11-19T11:05:50;13.88;;;2.78;;
75854;SDS011;64502;59.976;30.316;2023-11-19T11:08:17;8.15;;;2.42;;
75854;SDS011;64502;59.976;30.316;2023-11-19T11:10:45;9.98;;;2.33;;
75854;SDS011;64502;59.976;30.316;2023-11-19T11:13:18;10.65;;;2.67;;
75854;SDS011;64502;59.976;30.316;2023-11-19T11:15:45;8.48;;;2.30;;
75854;SDS011;64502;59.976;30.316;2023-11-19T11:18:12;10.40;;;2.80;;
75854;SDS011;64502;59.976;30.316;2023-11-19T11:20:38;13.85;;;3.28;;
75854;SDS011;64502;59.976;30.316;2023-11-19T11:28:43;9.85;;;2.92;;
75854;SDS011;64502;59.976;30.316;2023-11-19T11:39:33;6.53;;;2.60;;
75854;SDS011;64502;59.976;30.316;2023-11-19T11:55:25;6.40;;;2.03;;
75854;SDS011;64502;59.976;30.316;2023-11-19T11:57:52;19.25;;;2.28;;
75854;SDS011;64502;59.976;30.316;2023-11-19T12:00:22;7.28;;;1.73;;
75854;SDS011;64502;59.976;30.316;2023-11-19T12:02:53;10.63;;;2.22;;
75854;SDS011;64502;59.976;30.316;2023-11-19T12:05:20;8.70;;;3.00;;
75854;SDS011;64502;59.976;30.316;2023-11-19T12:08:02;11.23;;;3.30;;
75854;SDS011;64502;59.976;30.316;2023-11-19T12:10:32;15.90;;;3.20;;
75854;SDS011;64502;59.976;30.316;2023-11-19T12:13:12;13.43;;;2.85;;
75854;SDS011;64502;59.976;30.316;2023-11-19T12:20:56;9.13;;;2.85;;
75854;SDS011;64502;59.976;30.316;2023-11-19T12:23:25;11.50;;;2.42;;
75854;SDS011;64502;59.976;30.316;2023-11-19T12:25:51;7.80;;;2.78;;
75854;SDS011;64502;59.976;30.316;2023-11-19T12:28:17;11.27;;;3.15;;
75854;SDS011;64502;59.976;30.316;2023-11-19T12:30:44;9.00;;;3.38;;
75854;SDS011;64502;59.976;30.316;2023-11-19T12:33:11;11.80;;;3.10;;
75854;SDS011;64502;59.976;30.316;2023-11-19T12:35:41;12.93;;;3.63;;
75854;SDS011;64502;59.976;30.316;2023-11-19T12:38:08;7.80;;;2.88;;
75854;SDS011;64502;59.976;30.316;2023-11-19T12:41:03;7.88;;;2.55;;
75854;SDS011;64502;59.976;30.316;2023-11-19T12:43:32;9.73;;;3.22;;
75854;SDS011;64502;59.976;30.316;2023-11-19T12:45:59;19.90;;;5.22;;
75854;SDS011;64502;59.976;30.316;2023-11-19T12:48:25;7.93;;;2.50;;
75854;SDS011;64502;59.976;30.316;2023-11-19T12:50:54;8.25;;;3.05;;
75854;SDS011;64502;59.976;30.316;2023-11-19T12:53:21;10.90;;;2.47;;
75854;SDS011;64502;59.976;30.316;2023-11-19T12:55:48;13.70;;;2.70;;
75854;SDS011;64502;59.976;30.316;2023-11-19T12:58:33;11.48;;;1.83;;
75854;SDS011;64502;59.976;30.316;2023-11-19T13:01:06;12.95;;;2.35;;
75854;SDS011;64502;59.976;30.316;2023-11-19T13:03:35;6.68;;;1.83;;
75854;SDS011;64502;59.976;30.316;2023-11-19T13:08:45;11.90;;;3.00;;
75854;SDS011;64502;59.976;30.316;2023-11-19T13:11:13;4.63;;;2.08;;
75854;SDS011;64502;59.976;30.316;2023-11-19T13:13:55;6.30;;;1.98;;
75854;SDS011;64502;59.976;30.316;2023-11-19T13:16:22;8.60;;;3.35;;
75854;SDS011;64502;59.976;30.316;2023-11-19T13:18:48;10.80;;;1.88;;
75854;SDS011;64502;59.976;30.316;2023-11-19T13:21:13;8.30;;;1.95;;
75854;SDS011;64502;59.976;30.316;2023-11-19T13:23:39;7.88;;;2.33;;
75854;SDS011;64502;59.976;30.316;2023-11-19T13:26:04;5.63;;;1.63;;
75854;SDS011;64502;59.976;30.316;2023-11-19T13:28:30;4.38;;;1.92;;
75854;SDS011;64502;59.976;30.316;2023-11-19T13:30:56;8.20;;;1.90;;
75854;SDS011;64502;59.976;30.316;2023-11-19T13:33:21;8.32;;;2.08;;
75854;SDS011;64502;59.976;30.316;2023-11-19T13:35:47;5.28;;;1.63;;
75854;SDS011;64502;59.976;30.316;2023-11-19T13:38:12;4.68;;;2.20;;
75854;SDS011;64502;59.976;30.316;2023-11-19T13:40:38;7.85;;;1.85;;
75854;SDS011;64502;59.976;30.316;2023-11-19T13:43:04;4.65;;;1.50;;
75854;SDS011;64502;59.976;30.316;2023-11-19T13:45:30;3.83;;;1.67;;
75854;SDS011;64502;59.976;30.316;2023-11-19T13:47:57;6.00;;;2.25;;
75854;SDS011;64502;59.976;30.316;2023-11-19T13:50:22;4.95;;;1.95;;
75854;SDS011;64502;59.976;30.316;2023-11-19T13:52:48;8.10;;;2.30;;
75854;SDS011;64502;59.976;30.316;2023-11-19T13:55:14;6.68;;;2.30;;
75854;SDS011;64502;59.976;30.316;2023-11-19T13:57:40;9.25;;;2.65;;
75854;SDS011;64502;59.976;30.316;2023-11-19T14:00:07;5.68;;;2.08;;
75854;SDS011;64502;59.976;30.316;2023-11-19T14:02:45;9.90;;;3.33;;
75854;SDS011;64502;59.976;30.316;2023-11-19T14:05:12;7.18;;;2.60;;
75854;SDS011;64502;59.976;30.316;2023-11-19T14:07:40;5.80;;;2.35;;
75854;SDS011;64502;59.976;30.316;2023-11-19T14:10:06;8.52;;;3.00;;
75854;SDS011;64502;59.976;30.316;2023-11-19T14:12:34;9.18;;;2.40;;
75854;SDS011;64502;59.976;30.316;2023-11-19T14:15:02;6.25;;;3.05;;
75854;SDS011;64502;59.976;30.316;2023-11-19T14:17:30;13.05;;;2.40;;
75854;SDS011;64502;59.976;30.316;2023-11-19T14:19:56;5.75;;;2.35;;
75854;SDS011;64502;59.976;30.316;2023-11-19T14:22:22;5.82;;;1.80;;
75854;SDS011;64502;59.976;30.316;2023-11-19T14:24:47;5.93;;;2.38;;
75854;SDS011;64502;59.976;30.316;2023-11-19T14:27:13;5.07;;;2.08;;
75854;SDS011;64502;59.976;30.316;2023-11-19T14:29:38;9.70;;;2.75;;
75854;SDS011;64502;59.976;30.316;2023-11-19T14:32:05;8.65;;;2.78;;
75854;SDS011;64502;59.976;30.316;2023-11-19T14:34:31;6.55;;;2.00;;
75854;SDS011;64502;59.976;30.316;2023-11-19T14:36:57;5.28;;;2.20;;
75854;SDS011;64502;59.976;30.316;2023-11-19T14:39:23;9.60;;;2.22;;
75854;SDS011;64502;59.976;30.316;2023-11-19T14:41:50;5.72;;;2.63;;
75854;SDS011;64502;59.976;30.316;2023-11-19T14:44:16;9.10;;;2.40;;
75854;SDS011;64502;59.976;30.316;2023-11-19T14:46:42;8.90;;;2.42;;
75854;SDS011;64502;59.976;30.316;2023-11-19T14:49:08;5.53;;;1.92;;
75854;SDS011;64502;59.976;30.316;2023-11-19T14:51:37;6.68;;;2.38;;
75854;SDS011;64502;59.976;30.316;2023-11-19T14:54:06;9.20;;;2.58;;
75854;SDS011;64502;59.976;30.316;2023-11-19T14:56:31;7.72;;;2.22;;
75854;SDS011;64502;59.976;30.316;2023-11-19T14:58:57;6.07;;;1.95;;
75854;SDS011;64502;59.976;30.316;2023-11-19T15:01:23;11.15;;;2.17;;
75854;SDS011;64502;59.976;30.316;2023-11-19T15:03:49;10.88;;;2.58;;
75854;SDS011;64502;59.976;30.316;2023-11-19T15:06:15;10.85;;;2.92;;
75854;SDS011;64502;59.976;30.316;2023-11-19T15:08:41;11.40;;;1.98;;
75854;SDS011;64502;59.976;30.316;2023-11-19T15:11:07;9.45;;;2.45;;